Time;durP1;ratioP1;P1;durP2;ratioP2;P2;SDS_P1;SDS_P2;PMS_P1;PMS_P2;Temp;Humidity;BMP_temperature;BMP_pressure;BME280_temperature;BME280_humidity;BME280_pressure;Samples;Min_cycle;Max_cycle;Signal;HPM_P1;HPM_P2
2021/04/26 00:01:57;;;;;;;3.27;1.50;;;;;;;2.58;55.76;101642.06;5087049;28;20228;-79
2021/04/26 00:04:23;;;;;;;1.80;1.63;;;;;;;2.59;56.19;101636.78;5097438;28;20311;-79
2021/04/26 00:06:49;;;;;;;3.70;1.93;;;;;;;2.60;56.47;101633.28;5097626;28;20253;-80
2021/04/26 00:09:15;;;;;;;3.60;1.40;;;;;;;2.62;56.09;101630.63;5082059;28;20205;-81
2021/04/26 00:11:41;;;;;;;2.77;1.80;;;;;;;2.62;56.71;101626.22;5082278;28;20228;-81
2021/04/26 00:14:08;;;;;;;2.87;2.03;;;;;;;2.64;56.43;101631.47;5085055;28;20723;-80
2021/04/26 00:16:35;;;;;;;2.73;1.90;;;;;;;2.63;56.94;101627.97;5096730;28;20201;-81
2021/04/26 00:19:02;;;;;;;2.40;1.40;;;;;;;2.59;56.82;101626.28;5098504;28;20208;-79
2021/04/26 00:21:28;;;;;;;1.10;1.00;;;;;;;2.53;56.13;101631.63;5089529;28;20218;-80
2021/04/26 00:23:54;;;;;;;1.63;1.20;;;;;;;2.45;56.42;101628.25;5094360;28;20204;-82
2021/04/26 00:26:20;;;;;;;1.80;1.13;;;;;;;2.39;56.57;101633.56;5097079;28;20200;-80
2021/04/26 00:28:46;;;;;;;1.33;1.23;;;;;;;2.35;56.83;101630.13;5094417;28;20201;-79
2021/04/26 00:31:12;;;;;;;1.23;1.10;;;;;;;2.31;56.99;101624.94;5091283;28;20277;-81
2021/04/26 00:33:39;;;;;;;2.37;1.20;;;;;;;2.29;56.44;101631.97;5095388;28;20201;-80
2021/04/26 00:36:05;;;;;;;1.90;1.23;;;;;;;2.28;57.02;101631.09;5098129;28;20208;-80
2021/04/26 00:38:31;;;;;;;2.73;1.57;;;;;;;2.27;56.62;101624.13;5094481;28;20246;-80
2021/04/26 00:40:57;;;;;;;3.63;1.50;;;;;;;2.27;56.73;101628.50;5099883;28;20215;-81
2021/04/26 00:43:23;;;;;;;2.33;1.40;;;;;;;2.27;57.35;101623.25;5097455;28;20203;-82
2021/04/26 00:45:50;;;;;;;2.87;1.67;;;;;;;2.26;57.05;101621.50;5097265;28;20208;-81
2021/04/26 00:48:16;;;;;;;2.50;1.47;;;;;;;2.25;57.19;101619.75;5093557;28;20209;-81
2021/04/26 00:50:43;;;;;;;3.90;1.67;;;;;;;2.25;57.65;101619.75;5090557;28;20294;-81
2021/04/26 00:53:10;;;;;;;2.83;1.80;;;;;;;2.24;57.29;101626.78;5089458;28;20239;-79
2021/04/26 00:55:38;;;;;;;3.17;2.23;;;;;;;2.23;57.23;101626.78;5080021;28;20201;-80
2021/04/26 00:58:05;;;;;;;4.97;2.17;;;;;;;2.20;57.20;101621.56;5091062;28;20201;-80
2021/04/26 01:00:31;;;;;;;1.77;1.33;;;;;;;2.18;57.81;101620.72;5079992;28;20870;-81
2021/04/26 01:02:58;;;;;;;1.83;1.23;;;;;;;2.17;57.78;101618.97;5083231;28;20208;-79
2021/04/26 01:05:27;;;;;;;3.43;1.47;;;;;;;2.11;57.28;101621.72;5082597;28;20206;-80
2021/04/26 01:07:55;;;;;;;2.13;1.60;;;;;;;2.00;57.40;101617.44;5089439;28;20208;-80
2021/04/26 01:10:23;;;;;;;2.47;1.50;;;;;;;1.92;57.77;101628.97;5080827;28;20232;-79
2021/04/26 01:13:08;;;;;;;2.60;1.70;;;;;;;1.83;58.22;101623.78;5080818;28;20208;-79
2021/04/26 01:15:42;;;;;;;2.73;1.77;;;;;;;1.74;59.00;101624.78;5086773;28;20228;-80
2021/04/26 01:18:12;;;;;;;3.63;1.77;;;;;;;1.68;59.00;101630.97;5094727;28;20199;-79
2021/04/26 01:21:02;;;;;;;2.47;1.40;;;;;;;1.64;59.47;101625.75;5087872;28;20229;-79
2021/04/26 01:24:00;;;;;;;3.90;1.60;;;;;;;1.63;59.83;101629.28;5084782;28;20212;-80
2021/04/26 01:26:32;;;;;;;2.80;1.80;;;;;;;1.60;59.80;101624.97;5095541;28;20214;-81
2021/04/26 01:29:07;;;;;;;3.60;1.37;;;;;;;1.59;59.95;101617.09;5085792;28;20204;-81
2021/04/26 01:31:44;;;;;;;4.03;1.47;;;;;;;1.57;60.07;101613.63;5087155;28;20239;-78
2021/04/26 01:34:11;;;;;;;2.33;1.60;;;;;;;1.53;60.16;101617.16;5076388;28;20746;-80
2021/04/26 01:36:38;;;;;;;1.57;1.27;;;;;;;1.51;60.29;101616.28;5076180;28;20212;-80
2021/04/26 01:39:06;;;;;;;3.40;1.63;;;;;;;1.49;60.73;101615.44;5076427;28;20204;-79
2021/04/26 01:41:34;;;;;;;2.30;1.60;;;;;;;1.48;60.03;101613.69;5078531;28;20220;-80
2021/04/26 01:44:01;;;;;;;2.07;1.40;;;;;;;1.48;60.49;101616.31;5096535;28;20681;-80
2021/04/26 01:46:28;;;;;;;1.90;1.30;;;;;;;1.47;60.29;101619.84;5097016;28;20204;-80
2021/04/26 01:48:56;;;;;;;2.30;1.50;;;;;;;1.44;60.22;101622.47;5097688;28;20215;-80
2021/04/26 01:51:23;;;;;;;2.33;2.13;;;;;;;1.36;59.80;101623.44;5098002;28;20227;-81
2021/04/26 01:53:50;;;;;;;1.80;1.10;;;;;;;1.23;59.58;101619.22;5097504;28;20200;-81
2021/04/26 01:56:17;;;;;;;2.67;1.07;;;;;;;1.09;59.55;101614.94;5097115;28;20212;-81
2021/04/26 01:58:47;;;;;;;3.40;1.37;;;;;;;1.01;60.09;101612.41;5077155;28;20213;-81
2021/04/26 02:01:15;;;;;;;1.70;1.40;;;;;;;0.97;60.25;101615.94;5077047;28;20221;-80
2021/04/26 02:03:43;;;;;;;2.47;1.43;;;;;;;0.95;60.40;101617.72;5077433;28;20630;-80
2021/04/26 02:06:11;;;;;;;2.03;1.40;;;;;;;0.91;60.88;101619.47;5083992;28;20210;-80
2021/04/26 02:08:39;;;;;;;2.73;1.23;;;;;;;0.86;60.59;101612.56;5097690;28;20231;-80
2021/04/26 02:11:05;;;;;;;2.00;1.30;;;;;;;0.84;60.91;101609.06;5096609;28;20232;-80
2021/04/26 02:13:32;;;;;;;2.20;1.50;;;;;;;0.82;61.28;101605.59;5096460;28;20208;-79
2021/04/26 02:15:59;;;;;;;2.70;1.70;;;;;;;0.82;61.41;101603.84;5085769;28;20230;-80
2021/04/26 02:18:25;;;;;;;2.00;1.50;;;;;;;0.84;61.44;101603.81;5090848;28;20239;-80
2021/04/26 02:20:51;;;;;;;2.40;1.40;;;;;;;0.85;61.34;101602.94;5085048;28;20231;-80
2021/04/26 02:23:17;;;;;;;2.63;1.30;;;;;;;0.85;61.35;101605.56;5094775;28;20219;-80
2021/04/26 02:25:45;;;;;;;2.77;1.40;;;;;;;0.84;61.49;101598.59;5083303;28;20204;-81
2021/04/26 02:28:13;;;;;;;2.03;1.53;;;;;;;0.82;61.13;101600.34;5090285;28;20212;-80
2021/04/26 02:30:39;;;;;;;2.70;1.50;;;;;;;0.79;61.35;101593.38;5095726;28;20255;-81
2021/04/26 02:33:12;;;;;;;0.97;0.80;;;;;;;0.74;60.96;101592.53;5085878;28;20233;-81
2021/04/26 02:35:41;;;;;;;1.00;0.90;;;;;;;0.65;60.62;101585.63;5091298;28;20197;-81
2021/04/26 02:38:12;;;;;;;1.70;0.80;;;;;;;0.60;61.05;101584.78;5087646;28;20204;-81
2021/04/26 02:40:41;;;;;;;0.80;0.80;;;;;;;0.53;60.86;101577.00;5095212;28;20226;-81
2021/04/26 02:43:08;;;;;;;1.50;1.33;;;;;;;0.46;60.45;101584.00;5083765;28;20641;-81
2021/04/26 02:45:38;;;;;;;1.43;1.00;;;;;;;0.39;61.00;101577.06;5097955;28;20622;-80
2021/04/26 02:48:07;;;;;;;1.90;0.90;;;;;;;0.31;60.76;101573.63;5097867;28;20212;-81
2021/04/26 02:50:34;;;;;;;1.53;0.70;;;;;;;0.21;60.76;101579.78;5095561;28;20228;-80
2021/04/26 02:53:00;;;;;;;1.77;0.70;;;;;;;0.16;60.61;101577.22;5096964;28;20204;-81
2021/04/26 02:55:28;;;;;;;1.37;0.53;;;;;;;0.14;61.31;101570.25;5086958;28;20208;-81
2021/04/26 02:57:56;;;;;;;1.70;1.13;;;;;;;0.15;61.77;101566.75;5102582;22;20562;-87
2021/04/26 03:00:24;;;;;;;0.70;0.70;;;;;;;0.16;61.70;101571.13;5106702;28;20362;-87
2021/04/26 03:02:51;;;;;;;1.00;0.90;;;;;;;0.18;61.70;101569.38;5102016;28;20219;-86
2021/04/26 03:05:18;;;;;;;4.77;0.60;;;;;;;0.17;61.70;101567.63;5103226;28;20219;-87
2021/04/26 03:07:44;;;;;;;1.50;0.50;;;;;;;0.15;61.39;101561.53;5101420;28;20266;-87
2021/04/26 03:10:14;;;;;;;1.10;0.43;;;;;;;0.06;61.15;101566.78;5076363;28;20209;-85
2021/04/26 03:12:42;;;;;;;1.70;0.70;;;;;;;-0.02;61.41;101562.50;5092649;28;20543;-87
2021/04/26 03:15:12;;;;;;;2.10;0.70;;;;;;;-0.04;61.51;101560.75;5089976;28;20212;-83
2021/04/26 03:17:41;;;;;;;0.67;0.50;;;;;;;-0.06;61.96;101558.16;5078970;28;20307;-88
2021/04/26 03:20:11;;;;;;;0.70;0.60;;;;;;;-0.03;61.87;101554.63;5084795;28;20246;-87
2021/04/26 03:22:38;;;;;;;1.40;0.70;;;;;;;0.00;61.80;101549.38;5080419;28;20200;-87
2021/04/26 03:25:05;;;;;;;1.40;0.53;;;;;;;0.02;61.82;101547.59;5092235;28;20605;-86
2021/04/26 03:27:32;;;;;;;0.77;0.50;;;;;;;0.04;61.64;101545.84;5101940;28;20231;-82
2021/04/26 03:29:59;;;;;;;1.90;0.77;;;;;;;0.03;61.49;101541.50;5119233;28;20251;-82
2021/04/26 03:32:26;;;;;;;2.50;0.40;;;;;;;-0.01;61.36;101543.28;5103334;28;20197;-85
2021/04/26 03:34:54;;;;;;;2.00;0.60;;;;;;;-0.02;61.73;101536.31;5075195;28;20282;-84
2021/04/26 03:37:21;;;;;;;1.90;0.70;;;;;;;-0.02;61.43;101543.28;5090773;28;20661;-84
2021/04/26 03:39:48;;;;;;;1.33;0.53;;;;;;;-0.03;61.68;101545.03;5078441;28;20205;-86
2021/04/26 03:42:16;;;;;;;0.97;0.40;;;;;;;-0.06;61.58;101534.56;5078041;28;20208;-85
2021/04/26 03:44:44;;;;;;;1.07;0.70;;;;;;;-0.06;61.45;101544.19;5090849;28;20724;-85
2021/04/26 03:47:10;;;;;;;2.40;0.80;;;;;;;-0.06;61.71;101531.97;5079558;28;20201;-85
2021/04/26 03:49:36;;;;;;;2.67;0.73;;;;;;;-0.07;61.49;101535.44;5084764;28;20200;-84
2021/04/26 03:52:04;;;;;;;0.63;0.53;;;;;;;-0.07;61.50;101531.97;5075381;28;20224;-85
2021/04/26 03:54:30;;;;;;;1.20;0.73;;;;;;;-0.08;61.80;101541.56;5081694;28;20208;-85
2021/04/26 03:56:56;;;;;;;1.43;0.60;;;;;;;-0.09;61.44;101542.44;5079281;28;20213;-86
2021/04/26 03:59:22;;;;;;;0.80;0.60;;;;;;;-0.09;61.44;101536.34;5088007;28;20242;-84
2021/04/26 04:01:49;;;;;;;1.53;0.53;;;;;;;-0.11;61.36;101536.34;5089294;28;20206;-84
2021/04/26 04:04:16;;;;;;;1.40;0.80;;;;;;;-0.13;61.58;101532.84;5084891;28;20204;-85
2021/04/26 04:06:42;;;;;;;1.07;0.60;;;;;;;-0.15;61.39;101532.00;5094832;28;20981;-86
2021/04/26 04:09:09;;;;;;;3.23;0.60;;;;;;;-0.20;61.42;101525.06;5095144;28;20257;-86
2021/04/26 04:11:35;;;;;;;0.73;0.60;;;;;;;-0.25;61.44;101527.69;5084739;28;20223;-85
2021/04/26 04:14:02;;;;;;;2.30;0.60;;;;;;;-0.28;61.85;101529.44;5093617;28;20239;-86
2021/04/26 04:16:29;;;;;;;0.93;0.60;;;;;;;-0.33;61.85;101525.97;5092345;28;20201;-85
2021/04/26 04:18:56;;;;;;;1.33;0.60;;;;;;;-0.36;61.63;101524.28;5088272;28;20239;-83
2021/04/26 04:21:22;;;;;;;2.60;0.70;;;;;;;-0.41;61.98;101518.19;5092397;28;20207;-86
2021/04/26 04:23:48;;;;;;;1.90;0.67;;;;;;;-0.42;61.92;101519.94;5088195;28;20208;-85
2021/04/26 04:26:15;;;;;;;1.23;0.60;;;;;;;-0.44;62.45;101518.19;5086981;28;20208;-84
2021/04/26 04:28:41;;;;;;;1.50;0.60;;;;;;;-0.45;62.28;101519.06;5094209;28;20227;-86
2021/04/26 04:31:07;;;;;;;3.70;0.90;;;;;;;-0.44;62.22;101515.56;5088862;28;20228;-85
2021/04/26 04:33:34;;;;;;;0.90;0.50;;;;;;;-0.45;62.87;101513.84;5090571;28;20204;-85
2021/04/26 04:36:00;;;;;;;1.77;0.90;;;;;;;-0.45;62.93;101519.06;5089859;28;20633;-83
2021/04/26 04:38:27;;;;;;;1.90;0.80;;;;;;;-0.45;63.24;101514.72;5086479;28;20657;-84
2021/04/26 04:40:53;;;;;;;4.90;0.90;;;;;;;-0.43;63.34;101512.09;5092502;28;20688;-86
2021/04/26 04:43:21;;;;;;;1.00;0.77;;;;;;;-0.45;62.83;101512.09;5081341;28;20200;-85
2021/04/26 04:45:48;;;;;;;3.37;0.67;;;;;;;-0.47;62.98;101515.59;5091831;28;20697;-86
2021/04/26 04:48:14;;;;;;;2.83;0.83;;;;;;;-0.48;62.97;101508.59;5088091;28;20229;-85
2021/04/26 04:50:40;;;;;;;1.27;0.53;;;;;;;-0.46;63.31;101517.31;5090579;28;20779;-85
2021/04/26 04:53:06;;;;;;;0.70;0.60;;;;;;;-0.46;63.49;101517.31;5088895;28;20338;-87
2021/04/26 04:55:33;;;;;;;2.03;0.90;;;;;;;-0.50;63.39;101526.94;5088930;28;20200;-85
2021/04/26 04:57:59;;;;;;;1.97;1.17;;;;;;;-0.53;63.95;101528.69;5096683;28;20207;-86
2021/04/26 05:00:26;;;;;;;1.67;1.07;;;;;;;-0.54;63.83;101530.47;5099358;28;20245;-85
2021/04/26 05:02:53;;;;;;;1.43;1.20;;;;;;;-0.53;64.52;101526.94;5094713;28;20963;-85
2021/04/26 05:05:19;;;;;;;2.97;1.37;;;;;;;-0.50;64.63;101533.91;5090813;28;20200;-85
2021/04/26 05:07:45;;;;;;;4.23;1.37;;;;;;;-0.46;65.13;101533.03;5092814;28;20278;-84
2021/04/26 05:10:11;;;;;;;2.83;1.30;;;;;;;-0.41;65.24;101536.50;5096140;28;20222;-84
2021/04/26 05:12:37;;;;;;;3.57;1.60;;;;;;;-0.33;65.38;101529.47;5091785;28;20204;-86
2021/04/26 05:15:04;;;;;;;7.37;1.77;;;;;;;-0.27;65.73;101529.44;5085241;28;20219;-85
2021/04/26 05:17:32;;;;;;;6.07;2.47;;;;;;;-0.21;65.64;101532.06;5090418;28;20208;-85
2021/04/26 05:19:59;;;;;;;2.23;1.60;;;;;;;-0.12;65.73;101531.97;5082495;28;20205;-80
2021/04/26 05:22:25;;;;;;;2.10;1.60;;;;;;;-0.04;65.32;101527.59;5087860;28;20207;-86
2021/04/26 05:24:53;;;;;;;4.13;1.83;;;;;;;0.08;65.41;101525.75;5079105;28;20719;-85
2021/04/26 05:27:19;;;;;;;7.83;2.13;;;;;;;0.18;65.54;101514.34;5078173;28;20259;-85
2021/04/26 05:29:45;;;;;;;7.63;1.90;;;;;;;0.28;65.76;101513.41;5083804;28;20291;-86
2021/04/26 05:32:11;;;;;;;5.27;1.67;;;;;;;0.38;65.88;101514.19;5092131;28;20572;-87
2021/04/26 05:34:38;;;;;;;6.00;1.77;;;;;;;0.50;65.70;101525.47;5082923;28;20219;-86
2021/04/26 05:37:04;;;;;;;7.23;1.60;;;;;;;0.65;66.04;101527.06;5081959;28;20256;-87
2021/04/26 05:39:30;;;;;;;4.90;1.60;;;;;;;0.80;65.72;101528.69;5088635;28;20720;-86
2021/04/26 05:41:57;;;;;;;5.17;2.00;;;;;;;0.95;65.85;101515.41;5085904;28;20205;-87
2021/04/26 05:44:23;;;;;;;2.20;1.30;;;;;;;1.13;65.60;101517.84;5088152;28;20218;-86
2021/04/26 05:46:49;;;;;;;6.10;2.23;;;;;;;1.30;65.65;101515.91;5087831;28;20212;-85
2021/04/26 05:49:16;;;;;;;4.67;2.47;;;;;;;1.50;65.35;101512.16;5081493;28;20216;-86
2021/04/26 05:51:42;;;;;;;3.73;2.27;;;;;;;1.68;64.88;101511.94;5079927;28;20219;-86
2021/04/26 05:54:08;;;;;;;3.67;1.93;;;;;;;1.85;64.97;101509.94;5084021;28;20199;-85
2021/04/26 05:56:35;;;;;;;2.40;1.60;;;;;;;2.03;64.35;101512.31;5086703;28;20279;-86
2021/04/26 05:59:01;;;;;;;3.10;1.70;;;;;;;2.19;63.96;101507.69;5085561;28;20236;-85
2021/04/26 06:01:27;;;;;;;3.67;1.80;;;;;;;2.37;63.82;101509.19;5091194;28;20192;-84
2021/04/26 06:03:53;;;;;;;3.47;1.60;;;;;;;2.52;63.60;101508.91;5087791;28;20219;-86
2021/04/26 06:06:19;;;;;;;2.33;1.80;;;;;;;2.68;63.88;101502.53;5078196;28;20200;-86
2021/04/26 06:08:45;;;;;;;3.00;1.60;;;;;;;2.86;63.21;101509.22;5075118;28;20228;-85
2021/04/26 06:11:11;;;;;;;2.77;1.83;;;;;;;3.02;62.68;101507.19;5075003;28;20228;-86
2021/04/26 06:13:38;;;;;;;1.97;1.77;;;;;;;3.18;61.74;101508.63;5081229;28;20291;-85
2021/04/26 06:16:05;;;;;;;4.00;1.83;;;;;;;3.29;61.82;101504.00;5082811;28;20217;-86
2021/04/26 06:18:31;;;;;;;3.40;1.70;;;;;;;3.40;61.29;101501.19;5087071;28;20812;-87
2021/04/26 06:20:57;;;;;;;3.50;1.90;;;;;;;3.53;60.75;101501.78;5075590;28;20733;-87
2021/04/26 06:23:23;;;;;;;6.53;1.70;;;;;;;3.68;60.40;101498.81;5091038;28;20204;-86
2021/04/26 06:25:50;;;;;;;3.57;1.83;;;;;;;3.86;60.48;101501.06;5084392;28;20204;-86
2021/04/26 06:28:17;;;;;;;3.07;1.77;;;;;;;4.02;59.83;101496.31;5105917;28;20258;-85
2021/04/26 06:30:45;;;;;;;3.33;1.93;;;;;;;4.17;59.33;101501.22;5114219;28;20224;-86
2021/04/26 06:33:15;;;;;;;3.37;1.90;;;;;;;4.34;59.25;101499.03;5090411;28;20204;-86
2021/04/26 06:35:41;;;;;;;3.23;1.73;;;;;;;4.52;58.85;101488.03;5080052;28;20192;-86
2021/04/26 06:38:07;;;;;;;2.33;1.90;;;;;;;4.72;58.65;101494.59;5084768;28;20225;-87
2021/04/26 06:40:33;;;;;;;2.40;1.80;;;;;;;4.87;57.44;101488.91;5078343;28;20582;-86
2021/04/26 06:43:00;;;;;;;2.63;1.80;;;;;;;5.01;57.28;101492.06;5085690;28;20205;-86
2021/04/26 06:45:27;;;;;;;4.90;1.80;;;;;;;5.13;56.34;101497.00;5076323;28;20207;-86
2021/04/26 06:47:53;;;;;;;2.83;1.67;;;;;;;5.24;55.66;101489.63;5085298;28;20311;-86
2021/04/26 06:50:19;;;;;;;3.53;1.50;;;;;;;5.37;55.24;101494.59;5081971;28;20205;-86
2021/04/26 06:52:45;;;;;;;1.93;1.30;;;;;;;5.48;54.47;101492.50;5077966;28;20292;-87
2021/04/26 06:55:12;;;;;;;1.43;1.23;;;;;;;5.58;53.34;101494.81;5074942;28;20292;-86
2021/04/26 06:57:38;;;;;;;2.53;1.30;;;;;;;5.71;53.25;101495.34;5083293;28;20278;-88
2021/04/26 07:00:07;;;;;;;1.63;1.23;;;;;;;5.84;52.71;101486.13;5089631;28;20220;-86
2021/04/26 07:02:33;;;;;;;2.57;1.10;;;;;;;6.03;51.97;101483.81;5083509;28;20254;-86
2021/04/26 07:04:59;;;;;;;3.33;1.23;;;;;;;6.19;51.24;101490.34;5092905;28;20554;-87
2021/04/26 07:07:25;;;;;;;1.63;1.10;;;;;;;6.34;50.64;101490.75;5083435;28;20215;-86
2021/04/26 07:09:51;;;;;;;1.57;1.00;;;;;;;6.46;49.40;101485.06;5075752;28;20625;-86
2021/04/26 07:12:18;;;;;;;1.77;1.00;;;;;;;6.57;48.75;101485.59;5094441;28;20228;-88
2021/04/26 07:14:44;;;;;;;1.40;1.17;;;;;;;6.73;48.83;101488.59;5084053;28;20217;-86
2021/04/26 07:17:11;;;;;;;2.10;1.10;;;;;;;6.86;48.06;101481.94;5079458;28;20204;-86
2021/04/26 07:19:37;;;;;;;1.50;0.80;;;;;;;7.04;47.90;101483.06;5077657;28;20698;-87
2021/04/26 07:22:03;;;;;;;4.03;1.50;;;;;;;7.20;47.46;101481.59;5093309;28;20219;-86
2021/04/26 07:24:29;;;;;;;2.17;1.10;;;;;;;7.39;46.86;101485.31;5107137;28;20232;-86
2021/04/26 07:26:55;;;;;;;2.00;1.40;;;;;;;7.56;46.96;101474.06;5099652;28;20196;-86
2021/04/26 07:29:21;;;;;;;1.53;1.20;;;;;;;7.72;45.93;101472.56;5118391;28;20255;-86
2021/04/26 07:31:47;;;;;;;1.50;0.93;;;;;;;7.87;45.66;101468.50;5110560;28;20255;-87
2021/04/26 07:34:15;;;;;;;2.93;1.03;;;;;;;8.02;44.23;101475.84;5094850;28;20230;-87
2021/04/26 07:36:41;;;;;;;1.00;0.60;;;;;;;8.16;44.15;101468.19;5082050;28;20204;-85
2021/04/26 07:39:10;;;;;;;1.57;0.97;;;;;;;8.33;43.47;101475.50;5082712;28;20706;-86
2021/04/26 07:41:36;;;;;;;1.60;1.00;;;;;;;8.48;43.24;101476.66;5095064;28;20264;-88
2021/04/26 07:44:03;;;;;;;1.07;0.83;;;;;;;8.60;42.67;101470.81;5081167;28;20217;-88
2021/04/26 07:46:29;;;;;;;1.77;1.00;;;;;;;8.70;42.25;101472.16;5077118;28;20651;-88
2021/04/26 07:48:57;;;;;;;2.37;0.80;;;;;;;8.84;41.36;101472.44;5088862;28;20259;-88
2021/04/26 07:51:24;;;;;;;1.43;0.80;;;;;;;8.97;41.34;101468.31;5095246;28;20260;-88
2021/04/26 07:53:51;;;;;;;1.03;0.80;;;;;;;9.08;40.56;101473.16;5074891;28;20659;-87
2021/04/26 07:56:17;;;;;;;2.60;1.50;;;;;;;9.23;39.79;101475.16;5093590;28;20204;-88
2021/04/26 07:58:43;;;;;;;1.07;0.70;;;;;;;9.38;39.84;101465.63;5083378;28;20251;-87
2021/04/26 08:01:09;;;;;;;0.90;0.80;;;;;;;9.54;39.42;101477.28;5084504;28;20208;-87
2021/04/26 08:03:35;;;;;;;0.80;0.70;;;;;;;9.62;39.25;101466.28;5088250;28;20210;-88
2021/04/26 08:06:01;;;;;;;1.63;1.00;;;;;;;9.71;38.17;101463.19;5109724;28;20433;-87
2021/04/26 08:08:28;;;;;;;1.30;0.90;;;;;;;9.88;38.96;101460.59;5101898;28;20231;-88
2021/04/26 08:10:55;;;;;;;1.03;0.80;;;;;;;10.03;37.48;101465.19;5100034;28;20683;-90
2021/04/26 08:13:21;;;;;;;1.20;0.73;;;;;;;10.13;37.41;101460.28;5082836;28;20270;-88
2021/04/26 08:15:47;;;;;;;2.07;0.80;;;;;;;10.24;36.89;101460.66;5091351;28;20205;-89
2021/04/26 08:18:14;;;;;;;1.20;0.70;;;;;;;10.36;36.82;101452.09;5082197;28;20220;-92
2021/04/26 08:24:28;;;;;;;3.83;1.10;;;;;;;10.78;36.26;101456.16;5018140;28;20674;-92
2021/04/26 08:26:54;;;;;;;1.20;0.80;;;;;;;10.93;35.79;101450.03;5034458;28;20231;-92
2021/04/26 08:29:20;;;;;;;1.40;1.00;;;;;;;11.04;35.65;101442.34;5105751;28;20231;-91
2021/04/26 08:31:46;;;;;;;1.83;0.70;;;;;;;11.22;34.65;101448.50;5098281;28;20752;-91
2021/04/26 08:34:13;;;;;;;1.93;0.77;;;;;;;11.35;33.35;101443.38;5081268;28;20663;-90
2021/04/26 08:36:44;;;;;;;1.27;0.80;;;;;;;11.49;33.40;101440.81;5097697;28;20200;-89
2021/04/26 08:39:10;;;;;;;1.40;0.80;;;;;;;11.60;32.53;101445.59;5101308;28;20636;-91
2021/04/26 08:41:39;;;;;;;1.77;0.90;;;;;;;11.66;32.30;101431.88;5104902;28;20208;-90
2021/04/26 08:44:06;;;;;;;3.33;1.27;;;;;;;11.73;31.88;101434.13;5099826;28;20206;-91
2021/04/26 08:46:32;;;;;;;2.17;0.90;;;;;;;11.83;31.42;101443.38;5079891;28;20227;-90
2021/04/26 08:48:58;;;;;;;4.00;0.80;;;;;;;11.94;31.39;101444.59;5093862;28;20693;-91
2021/04/26 08:51:25;;;;;;;1.80;0.90;;;;;;;12.06;31.02;101443.91;5078175;28;20227;-89
2021/04/26 08:53:51;;;;;;;1.37;0.70;;;;;;;12.20;31.24;101445.78;5090982;28;20296;-91
2021/04/26 08:56:17;;;;;;;1.43;0.70;;;;;;;12.30;30.17;101436.28;5093016;28;20677;-92
2021/04/26 08:58:44;;;;;;;1.83;0.90;;;;;;;12.40;30.19;101432.13;5093043;28;20745;-91
2021/04/26 09:01:10;;;;;;;2.13;0.90;;;;;;;12.56;30.06;101442.75;5084052;28;20214;-92
2021/04/26 09:03:38;;;;;;;1.03;0.60;;;;;;;12.65;29.39;101432.41;5074459;28;20568;-91
2021/04/26 09:06:08;;;;;;;1.53;0.87;;;;;;;12.70;29.87;101433.00;5088697;28;20626;-91
2021/04/26 09:08:34;;;;;;;2.57;0.97;;;;;;;12.76;29.51;101434.44;5079259;28;20678;-90
2021/04/26 09:11:02;;;;;;;1.97;1.13;;;;;;;12.80;29.59;101434.16;5090125;28;20231;-91
2021/04/26 09:13:34;;;;;;;1.57;0.90;;;;;;;12.86;29.23;101422.25;5075253;28;20208;-90
2021/04/26 09:16:03;;;;;;;1.37;0.90;;;;;;;12.94;29.03;101419.09;5073614;28;20209;-91
2021/04/26 09:18:49;;;;;;;2.27;1.10;;;;;;;13.01;28.75;101415.97;5080067;28;20335;-91
2021/04/26 09:21:18;;;;;;;0.93;0.83;;;;;;;13.04;28.04;101413.09;5088057;28;20337;-90
2021/04/26 09:23:45;;;;;;;1.50;1.03;;;;;;;13.04;27.44;101418.44;5081099;28;20213;-91
2021/04/26 09:26:25;;;;;;;2.13;1.10;;;;;;;13.07;27.65;101418.28;5096557;28;20217;-90
2021/04/26 09:29:18;;;;;;;2.43;1.10;;;;;;;13.17;27.87;101414.09;5109362;28;20215;-90
2021/04/26 09:32:09;;;;;;;1.97;1.00;;;;;;;13.38;28.04;101403.00;5090412;28;20282;-91
2021/04/26 09:34:37;;;;;;;1.10;1.00;;;;;;;13.55;27.26;101398.31;5081387;28;20198;-91
2021/04/26 09:37:12;;;;;;;3.70;1.00;;;;;;;13.62;26.78;101392.53;5081601;28;20288;-90
2021/04/26 09:39:39;;;;;;;3.63;1.03;;;;;;;13.69;26.52;101394.75;5089353;28;20219;-91
2021/04/26 09:42:05;;;;;;;1.17;0.90;;;;;;;13.68;25.70;101398.38;5080428;28;20216;-90
2021/04/26 09:44:32;;;;;;;1.30;0.90;;;;;;;13.68;26.27;101392.16;5082735;28;20356;-91
2021/04/26 09:47:02;;;;;;;2.30;1.20;;;;;;;13.71;26.09;101395.50;5086227;28;20804;-91
2021/04/26 09:49:28;;;;;;;1.33;0.90;;;;;;;13.71;25.85;101400.00;5087154;28;20228;-92
2021/04/26 09:51:55;;;;;;;1.53;1.10;;;;;;;13.70;25.50;101393.78;5078255;28;20319;-90
2021/04/26 09:54:36;;;;;;;1.70;0.90;;;;;;;13.72;25.79;101388.34;5088908;28;20215;-91
2021/04/26 09:57:03;;;;;;;2.03;1.33;;;;;;;13.79;25.90;101389.66;5092564;28;20214;-91
2021/04/26 09:59:29;;;;;;;1.37;1.27;;;;;;;13.83;25.86;101388.47;5091275;28;20314;-91
2021/04/26 10:01:55;;;;;;;1.37;1.07;;;;;;;13.87;25.79;101380.16;5080828;28;20213;-91
2021/04/26 10:04:23;;;;;;;2.77;1.40;;;;;;;13.93;26.19;101378.03;5086338;28;20204;-90
2021/04/26 10:06:52;;;;;;;2.30;1.10;;;;;;;14.03;25.78;101371.09;5084988;28;20205;-91
2021/04/26 10:09:22;;;;;;;1.17;1.00;;;;;;;14.01;25.49;101360.50;5077370;28;20694;-90
2021/04/26 10:11:49;;;;;;;2.27;1.00;;;;;;;13.94;25.07;101366.38;5077067;28;20599;-92
2021/04/26 10:14:18;;;;;;;3.03;1.27;;;;;;;13.93;25.77;101360.16;5092188;28;20196;-92
2021/04/26 10:16:50;;;;;;;1.17;0.93;;;;;;;14.01;25.26;101357.81;5086746;28;20219;-91
2021/04/26 10:19:16;;;;;;;2.00;1.10;;;;;;;14.12;25.85;101357.13;5087601;28;20224;-91
2021/04/26 10:21:53;;;;;;;2.00;1.10;;;;;;;14.24;25.32;101346.44;5083264;28;20204;-92
2021/04/26 10:24:21;;;;;;;2.60;1.10;;;;;;;14.30;24.98;101349.66;5088548;28;20314;-91
2021/04/26 10:26:51;;;;;;;1.37;1.20;;;;;;;14.39;25.16;101336.47;5092204;28;20282;-91
2021/04/26 10:29:24;;;;;;;1.80;1.10;;;;;;;14.44;23.94;101334.38;5080987;28;20308;-92
2021/04/26 10:32:07;;;;;;;1.40;1.30;;;;;;;14.41;24.57;101323.88;5084629;28;20232;-90
2021/04/26 10:34:35;;;;;;;2.27;1.10;;;;;;;14.43;25.52;101331.81;5081905;28;20204;-91
2021/04/26 10:37:04;;;;;;;3.60;1.30;;;;;;;14.51;25.25;101330.31;5086677;28;20673;-91
2021/04/26 10:39:33;;;;;;;2.93;1.10;;;;;;;14.57;24.90;101327.22;5083848;28;20231;-90
2021/04/26 10:42:09;;;;;;;2.13;1.07;;;;;;;14.51;24.55;101322.25;5093674;28;20208;-90
2021/04/26 10:44:52;;;;;;;2.00;1.00;;;;;;;14.50;25.17;101319.72;5110437;28;20199;-89
2021/04/26 10:47:29;;;;;;;1.10;1.00;;;;;;;14.50;24.63;101320.59;5110770;28;20226;-90
2021/04/26 10:50:33;;;;;;;2.17;1.20;;;;;;;14.56;24.62;101320.13;5085531;28;20208;-92
2021/04/26 10:53:02;;;;;;;1.70;1.10;;;;;;;14.62;24.39;101308.13;5090797;28;20674;-91
2021/04/26 10:55:49;;;;;;;3.10;1.27;;;;;;;14.73;24.88;101313.59;5078478;28;20215;-91
2021/04/26 10:58:42;;;;;;;1.43;1.27;;;;;;;14.83;24.75;101319.19;5091522;28;20227;-91
2021/04/26 11:01:16;;;;;;;1.20;1.00;;;;;;;14.91;24.32;101306.06;5089145;28;20208;-91
2021/04/26 11:03:43;;;;;;;2.63;1.00;;;;;;;14.90;23.96;101302.53;5083165;28;20191;-91
2021/04/26 11:06:17;;;;;;;2.87;1.20;;;;;;;14.92;24.45;101305.09;5084823;28;20284;-91
2021/04/26 11:11:34;;;;;;;3.80;1.10;;;;;;;14.94;24.60;101300.50;5079086;28;20224;-91
2021/04/26 11:14:02;;;;;;;2.37;1.40;;;;;;;15.03;24.63;101289.13;5088482;28;20700;-90
2021/04/26 11:16:31;;;;;;;2.67;1.03;;;;;;;15.08;24.01;101296.81;5082122;28;20731;-92
2021/04/26 11:19:09;;;;;;;2.87;1.03;;;;;;;15.05;24.51;101295.22;5075700;28;20729;-91
2021/04/26 11:21:56;;;;;;;1.20;1.10;;;;;;;15.03;24.68;101282.91;5085354;28;20203;-91
2021/04/26 11:24:49;;;;;;;2.67;1.20;;;;;;;14.96;24.66;101285.16;5083023;28;20251;-91
2021/04/26 11:27:24;;;;;;;2.23;1.03;;;;;;;14.87;23.94;101281.28;5079911;28;20204;-90
2021/04/26 11:30:22;;;;;;;2.10;1.20;;;;;;;14.85;24.54;101269.84;5082470;28;20287;-92
2021/04/26 11:33:21;;;;;;;1.10;1.00;;;;;;;14.90;24.87;101273.03;5081448;28;20250;-91
2021/04/26 11:36:14;;;;;;;2.97;1.30;;;;;;;14.91;24.87;101268.53;5083857;28;20678;-90
2021/04/26 11:38:42;;;;;;;2.53;1.30;;;;;;;14.90;24.67;101254.25;5061085;28;20765;-89
2021/04/26 11:41:10;;;;;;;2.10;1.23;;;;;;;14.88;24.52;101252.66;5083522;28;20873;-91
2021/04/26 11:43:52;;;;;;;1.47;1.20;;;;;;;14.92;25.02;101252.31;5087123;28;20224;-91